IBE0445 LEMD-LESO
Flight info
| Callsign | IBE0445 |
|---|---|
| Flight time | 0h 39m |
| Altitude | 34000 |
| Route | RBO N867 GASMO T430 DITOP N10 SSN |
| Aircraft | A319/M-SDE3FGHIRWY/LB1 |
Departure
| Time | 2026-04-14 12:20 |
|---|---|
| Airport | Adolfo Suárez Madrid–Barajas Airport (LEMD) |
Arrival
| Time | 2026-04-14 12:59 |
|---|---|
| Airport | San Sebastián Airport (LESO) |
| Time | Latitude | Longitude | Altitude | Speed | Heading |
|---|---|---|---|---|---|
| 2026-04-14 12:03 | 40.49003 | -3.58967 | 2022 ft | 0 kts | 269° |
| 2026-04-14 12:13 | 40.49004 | -3.58939 | 2022 ft | 4 kts | 269° |
| 2026-04-14 12:13 | 40.49004 | -3.58905 | 2022 ft | 4 kts | 286° |
| 2026-04-14 12:13 | 40.48989 | -3.58881 | 2032 ft | 4 kts | 350° |
| 2026-04-14 12:14 | 40.48970 | -3.58879 | 2029 ft | 2 kts | 359° |
| 2026-04-14 12:14 | 40.48969 | -3.58879 | 2029 ft | 0 kts | 359° |
| 2026-04-14 12:16 | 40.48980 | -3.58879 | 2027 ft | 5 kts | 359° |
| 2026-04-14 12:16 | 40.49028 | -3.58881 | 2022 ft | 8 kts | 359° |
| 2026-04-14 12:16 | 40.49089 | -3.58881 | 2022 ft | 11 kts | 360° |
| 2026-04-14 12:16 | 40.49184 | -3.58881 | 2022 ft | 14 kts | 360° |
| 2026-04-14 12:17 | 40.49240 | -3.58821 | 2022 ft | 12 kts | 88° |
| 2026-04-14 12:17 | 40.49239 | -3.58707 | 2024 ft | 13 kts | 90° |
| 2026-04-14 12:17 | 40.49240 | -3.58587 | 2022 ft | 14 kts | 89° |
| 2026-04-14 12:17 | 40.49241 | -3.58431 | 2016 ft | 20 kts | 90° |
| 2026-04-14 12:18 | 40.49242 | -3.58234 | 2007 ft | 24 kts | 89° |
| 2026-04-14 12:18 | 40.49243 | -3.57999 | 2001 ft | 28 kts | 90° |
| 2026-04-14 12:18 | 40.49243 | -3.57736 | 1991 ft | 29 kts | 90° |
| 2026-04-14 12:18 | 40.49280 | -3.57538 | 1985 ft | 23 kts | 52° |
| 2026-04-14 12:19 | 40.49426 | -3.57453 | 1983 ft | 24 kts | 1° |
| 2026-04-14 12:19 | 40.49692 | -3.57454 | 1985 ft | 71 kts | 359° |
| 2026-04-14 12:19 | 40.50432 | -3.57461 | 1992 ft | 138 kts | 360° |
| 2026-04-14 12:19 | 40.51538 | -3.57473 | 2283 ft | 162 kts | 359° |
| 2026-04-14 12:20 | 40.52626 | -3.57504 | 3155 ft | 155 kts | 358° |
| 2026-04-14 12:20 | 40.53717 | -3.57518 | 3895 ft | 161 kts | 0° |
| 2026-04-14 12:20 | 40.54866 | -3.57080 | 4304 ft | 186 kts | 25° |
| 2026-04-14 12:20 | 40.56110 | -3.56304 | 4686 ft | 210 kts | 23° |
| 2026-04-14 12:21 | 40.57523 | -3.55462 | 5198 ft | 235 kts | 22° |
| 2026-04-14 12:21 | 40.59085 | -3.54540 | 5860 ft | 255 kts | 23° |
| 2026-04-14 12:21 | 40.60726 | -3.53568 | 6819 ft | 261 kts | 23° |
| 2026-04-14 12:21 | 40.62372 | -3.52584 | 7816 ft | 264 kts | 23° |
| 2026-04-14 12:22 | 40.64055 | -3.51569 | 8852 ft | 268 kts | 23° |
| 2026-04-14 12:22 | 40.65756 | -3.50539 | 9888 ft | 271 kts | 23° |
| 2026-04-14 12:22 | 40.67494 | -3.49488 | 10642 ft | 284 kts | 23° |
| 2026-04-14 12:22 | 40.69369 | -3.48359 | 11020 ft | 308 kts | 23° |
| 2026-04-14 12:23 | 40.71387 | -3.47146 | 11422 ft | 327 kts | 23° |
| 2026-04-14 12:23 | 40.73484 | -3.45882 | 12169 ft | 335 kts | 23° |
| 2026-04-14 12:23 | 40.75610 | -3.44594 | 13023 ft | 338 kts | 23° |
| 2026-04-14 12:23 | 40.77759 | -3.43292 | 13897 ft | 341 kts | 23° |
| 2026-04-14 12:24 | 40.79930 | -3.41978 | 14663 ft | 344 kts | 22° |
| 2026-04-14 12:24 | 40.82115 | -3.40658 | 15410 ft | 347 kts | 22° |
| 2026-04-14 12:24 | 40.84324 | -3.39321 | 16146 ft | 351 kts | 22° |
| 2026-04-14 12:24 | 40.86551 | -3.37970 | 16876 ft | 354 kts | 22° |
| 2026-04-14 12:25 | 40.88805 | -3.36600 | 17596 ft | 358 kts | 23° |
| 2026-04-14 12:25 | 40.91081 | -3.35218 | 18317 ft | 362 kts | 23° |
| 2026-04-14 12:25 | 40.93383 | -3.33819 | 18938 ft | 366 kts | 22° |
| 2026-04-14 12:25 | 40.95702 | -3.32406 | 19541 ft | 369 kts | 22° |
| 2026-04-14 12:26 | 40.98046 | -3.30977 | 20148 ft | 373 kts | 22° |
| 2026-04-14 12:26 | 41.00417 | -3.29533 | 20786 ft | 376 kts | 22° |
| 2026-04-14 12:26 | 41.02800 | -3.28079 | 21398 ft | 379 kts | 22° |
| 2026-04-14 12:26 | 41.05205 | -3.26609 | 21983 ft | 382 kts | 22° |
| 2026-04-14 12:27 | 41.07631 | -3.25123 | 22557 ft | 385 kts | 22° |
| 2026-04-14 12:27 | 41.10038 | -3.23647 | 23126 ft | 388 kts | 22° |
| 2026-04-14 12:27 | 41.12493 | -3.22143 | 23699 ft | 391 kts | 21° |
| 2026-04-14 12:27 | 41.14977 | -3.20622 | 24155 ft | 394 kts | 21° |
| 2026-04-14 12:28 | 41.17471 | -3.19092 | 24624 ft | 396 kts | 21° |
| 2026-04-14 12:28 | 41.19975 | -3.17553 | 25093 ft | 398 kts | 21° |
| 2026-04-14 12:28 | 41.22488 | -3.16007 | 25560 ft | 399 kts | 21° |
| 2026-04-14 12:28 | 41.25016 | -3.14449 | 26015 ft | 401 kts | 21° |
| 2026-04-14 12:29 | 41.27555 | -3.12883 | 26467 ft | 403 kts | 21° |
| 2026-04-14 12:29 | 41.30111 | -3.11308 | 26909 ft | 405 kts | 21° |
| 2026-04-14 12:29 | 41.32674 | -3.09731 | 27344 ft | 407 kts | 21° |
| 2026-04-14 12:29 | 41.35249 | -3.08149 | 27754 ft | 409 kts | 21° |
| 2026-04-14 12:30 | 41.37840 | -3.06555 | 28172 ft | 411 kts | 21° |
| 2026-04-14 12:30 | 41.40449 | -3.04946 | 28582 ft | 413 kts | 21° |
| 2026-04-14 12:30 | 41.43060 | -3.03333 | 28982 ft | 415 kts | 21° |
| 2026-04-14 12:30 | 41.45686 | -3.01709 | 29373 ft | 417 kts | 21° |
| 2026-04-14 12:31 | 41.48324 | -3.00072 | 29759 ft | 419 kts | 21° |
| 2026-04-14 12:31 | 41.50971 | -2.98427 | 30131 ft | 421 kts | 21° |
| 2026-04-14 12:31 | 41.53632 | -2.96772 | 30451 ft | 423 kts | 21° |
| 2026-04-14 12:31 | 41.56264 | -2.95133 | 30824 ft | 422 kts | 21° |
| 2026-04-14 12:32 | 41.58954 | -2.93458 | 31293 ft | 420 kts | 21° |
| 2026-04-14 12:32 | 41.61595 | -2.91815 | 31766 ft | 417 kts | 21° |
| 2026-04-14 12:32 | 41.64222 | -2.90181 | 32254 ft | 415 kts | 21° |
| 2026-04-14 12:32 | 41.66795 | -2.88576 | 32738 ft | 412 kts | 21° |
| 2026-04-14 12:33 | 41.69395 | -2.86957 | 33224 ft | 410 kts | 21° |
| 2026-04-14 12:33 | 41.71976 | -2.85344 | 33715 ft | 408 kts | 21° |
| 2026-04-14 12:33 | 41.74538 | -2.83738 | 34104 ft | 407 kts | 20° |
| 2026-04-14 12:33 | 41.77092 | -2.82139 | 34184 ft | 404 kts | 20° |
| 2026-04-14 12:34 | 41.81301 | -2.79501 | 34192 ft | 401 kts | 20° |
| 2026-04-14 12:34 | 41.86348 | -2.76335 | 34193 ft | 400 kts | 20° |
| 2026-04-14 12:35 | 41.91383 | -2.73173 | 34193 ft | 399 kts | 21° |
| 2026-04-14 12:35 | 41.96419 | -2.70004 | 34193 ft | 399 kts | 20° |
| 2026-04-14 12:36 | 42.01451 | -2.66836 | 34196 ft | 399 kts | 21° |
| 2026-04-14 12:36 | 42.06480 | -2.63651 | 34192 ft | 400 kts | 21° |
| 2026-04-14 12:37 | 42.11510 | -2.60456 | 34190 ft | 399 kts | 21° |
| 2026-04-14 12:37 | 42.16547 | -2.57268 | 34193 ft | 400 kts | 21° |
| 2026-04-14 12:38 | 42.24069 | -2.52491 | 34130 ft | 399 kts | 21° |
| 2026-04-14 12:38 | 42.26581 | -2.50887 | 33768 ft | 400 kts | 21° |
| 2026-04-14 12:39 | 42.29107 | -2.49278 | 33499 ft | 403 kts | 21° |
| 2026-04-14 12:39 | 42.31648 | -2.47662 | 33239 ft | 404 kts | 21° |
| 2026-04-14 12:39 | 42.34196 | -2.46039 | 32977 ft | 406 kts | 21° |
| 2026-04-14 12:39 | 42.36751 | -2.44410 | 32722 ft | 407 kts | 21° |
| 2026-04-14 12:40 | 42.39313 | -2.42775 | 32464 ft | 408 kts | 21° |
| 2026-04-14 12:40 | 42.41880 | -2.41133 | 32210 ft | 409 kts | 21° |
| 2026-04-14 12:40 | 42.44455 | -2.39484 | 31959 ft | 410 kts | 21° |
| 2026-04-14 12:40 | 42.47038 | -2.37824 | 31702 ft | 411 kts | 21° |
| 2026-04-14 12:41 | 42.49628 | -2.36155 | 31452 ft | 412 kts | 21° |
| 2026-04-14 12:41 | 42.52221 | -2.34485 | 31227 ft | 413 kts | 22° |
| 2026-04-14 12:41 | 42.54828 | -2.32808 | 30977 ft | 414 kts | 22° |
| 2026-04-14 12:41 | 42.57431 | -2.31134 | 30655 ft | 415 kts | 22° |
| 2026-04-14 12:42 | 42.60048 | -2.29451 | 29534 ft | 418 kts | 22° |
| 2026-04-14 12:42 | 42.62684 | -2.27752 | 28328 ft | 421 kts | 22° |
| 2026-04-14 12:42 | 42.65338 | -2.26038 | 27171 ft | 424 kts | 22° |
| 2026-04-14 12:42 | 42.67996 | -2.24319 | 26300 ft | 421 kts | 22° |
| 2026-04-14 12:43 | 42.70617 | -2.22619 | 25584 ft | 414 kts | 22° |
| 2026-04-14 12:43 | 42.73204 | -2.20941 | 24862 ft | 409 kts | 23° |
| 2026-04-14 12:43 | 42.75766 | -2.19279 | 24147 ft | 406 kts | 23° |
| 2026-04-14 12:43 | 42.78298 | -2.17636 | 23389 ft | 402 kts | 23° |
| 2026-04-14 12:44 | 42.80808 | -2.16009 | 22707 ft | 396 kts | 23° |
| 2026-04-14 12:44 | 42.83280 | -2.14406 | 22064 ft | 391 kts | 23° |
| 2026-04-14 12:44 | 42.85725 | -2.12819 | 21450 ft | 386 kts | 23° |
| 2026-04-14 12:45 | 42.90526 | -2.09697 | 20261 ft | 379 kts | 23° |
| 2026-04-14 12:45 | 42.92868 | -2.08170 | 19717 ft | 376 kts | 23° |
| 2026-04-14 12:45 | 42.95224 | -2.06631 | 19160 ft | 374 kts | 24° |
| 2026-04-14 12:45 | 42.97558 | -2.05104 | 18656 ft | 370 kts | 24° |
| 2026-04-14 12:46 | 42.99869 | -2.03593 | 18089 ft | 367 kts | 24° |
| 2026-04-14 12:46 | 43.02158 | -2.02093 | 17598 ft | 362 kts | 24° |
| 2026-04-14 12:46 | 43.04416 | -2.00615 | 17107 ft | 357 kts | 24° |
| 2026-04-14 12:46 | 43.06636 | -1.99163 | 16626 ft | 351 kts | 23° |
| 2026-04-14 12:47 | 43.08829 | -1.97726 | 16148 ft | 347 kts | 23° |
| 2026-04-14 12:47 | 43.10993 | -1.96305 | 15651 ft | 344 kts | 23° |
| 2026-04-14 12:47 | 43.13142 | -1.94894 | 15167 ft | 341 kts | 24° |
| 2026-04-14 12:47 | 43.15278 | -1.93485 | 14647 ft | 340 kts | 24° |
| 2026-04-14 12:48 | 43.17404 | -1.92085 | 14136 ft | 338 kts | 24° |
| 2026-04-14 12:48 | 43.19520 | -1.90694 | 13544 ft | 337 kts | 23° |
| 2026-04-14 12:48 | 43.21625 | -1.89306 | 12999 ft | 334 kts | 24° |
| 2026-04-14 12:48 | 43.23709 | -1.87932 | 12436 ft | 331 kts | 23° |
| 2026-04-14 12:49 | 43.25776 | -1.86571 | 11872 ft | 329 kts | 23° |
| 2026-04-14 12:49 | 43.27882 | -1.85383 | 11298 ft | 326 kts | 13° |
| 2026-04-14 12:49 | 43.30085 | -1.85024 | 11045 ft | 312 kts | 357° |
| 2026-04-14 12:49 | 43.32178 | -1.85460 | 10922 ft | 297 kts | 343° |
| 2026-04-14 12:50 | 43.34036 | -1.86568 | 10791 ft | 286 kts | 329° |
| 2026-04-14 12:50 | 43.37048 | -1.89865 | 10416 ft | 270 kts | 321° |
| 2026-04-14 12:50 | 43.38457 | -1.91491 | 10187 ft | 266 kts | 321° |
| 2026-04-14 12:51 | 43.39870 | -1.93119 | 10045 ft | 265 kts | 321° |
| 2026-04-14 12:51 | 43.41283 | -1.94747 | 9912 ft | 264 kts | 321° |
| 2026-04-14 12:51 | 43.42691 | -1.96370 | 9769 ft | 264 kts | 321° |
| 2026-04-14 12:51 | 43.44102 | -1.97998 | 9351 ft | 267 kts | 320° |
| 2026-04-14 12:52 | 43.45592 | -1.99502 | 8992 ft | 263 kts | 333° |
| 2026-04-14 12:52 | 43.47331 | -2.00178 | 8633 ft | 261 kts | 354° |
| 2026-04-14 12:52 | 43.49126 | -1.99807 | 8214 ft | 265 kts | 18° |
| 2026-04-14 12:52 | 43.50675 | -1.98403 | 7788 ft | 272 kts | 43° |
| 2026-04-14 12:53 | 43.51664 | -1.96162 | 7367 ft | 279 kts | 69° |
| 2026-04-14 12:53 | 43.51857 | -1.93495 | 6963 ft | 284 kts | 93° |
| 2026-04-14 12:53 | 43.51615 | -1.90795 | 6531 ft | 284 kts | 95° |
| 2026-04-14 12:53 | 43.51364 | -1.88104 | 6104 ft | 282 kts | 95° |
| 2026-04-14 12:54 | 43.51114 | -1.85430 | 5744 ft | 279 kts | 95° |
| 2026-04-14 12:54 | 43.50872 | -1.82838 | 5613 ft | 266 kts | 95° |
| 2026-04-14 12:54 | 43.50642 | -1.80376 | 5478 ft | 251 kts | 94° |
| 2026-04-14 12:54 | 43.50426 | -1.78067 | 5357 ft | 236 kts | 94° |
| 2026-04-14 12:55 | 43.50222 | -1.75885 | 5178 ft | 223 kts | 94° |
| 2026-04-14 12:55 | 43.50029 | -1.73831 | 4937 ft | 214 kts | 94° |
| 2026-04-14 12:55 | 43.49845 | -1.71864 | 4762 ft | 202 kts | 94° |
| 2026-04-14 12:55 | 43.49657 | -1.69970 | 4445 ft | 199 kts | 98° |
| 2026-04-14 12:56 | 43.49017 | -1.68276 | 4025 ft | 204 kts | 135° |
| 2026-04-14 12:56 | 43.47789 | -1.67333 | 3602 ft | 206 kts | 169° |
| 2026-04-14 12:56 | 43.46374 | -1.67461 | 3204 ft | 205 kts | 205° |
| 2026-04-14 12:56 | 43.45242 | -1.68498 | 3057 ft | 189 kts | 221° |
| 2026-04-14 12:57 | 43.44230 | -1.69620 | 2732 ft | 183 kts | 221° |
| 2026-04-14 12:57 | 43.43244 | -1.70714 | 2273 ft | 181 kts | 220° |
| 2026-04-14 12:57 | 43.42269 | -1.71806 | 1742 ft | 181 kts | 220° |
| 2026-04-14 12:57 | 43.41297 | -1.72898 | 1280 ft | 178 kts | 220° |
| 2026-04-14 12:58 | 43.40372 | -1.73900 | 1065 ft | 156 kts | 218° |
| 2026-04-14 12:58 | 43.39560 | -1.74745 | 840 ft | 139 kts | 218° |
| 2026-04-14 12:58 | 43.38813 | -1.75527 | 664 ft | 134 kts | 219° |
| 2026-04-14 12:58 | 43.38098 | -1.76332 | 563 ft | 133 kts | 222° |
| 2026-04-14 12:59 | 43.37408 | -1.77127 | 399 ft | 126 kts | 221° |
| 2026-04-14 12:59 | 43.36729 | -1.77860 | 191 ft | 126 kts | 221° |
| 2026-04-14 12:59 | 43.36039 | -1.78616 | 39 ft | 121 kts | 221° |
| 2026-04-14 12:59 | 43.35552 | -1.79169 | 18 ft | 34 kts | 218° |